sensor_id;sensor_type;location;lat;lon;timestamp;temperature;humidity
44517;DHT22;30223;17.182;-96.766;2022-07-23T00:00:06;26.10;55.80
44517;DHT22;30223;17.182;-96.766;2022-07-23T00:02:34;26.10;55.90
44517;DHT22;30223;17.182;-96.766;2022-07-23T00:05:00;26.20;55.80
44517;DHT22;30223;17.182;-96.766;2022-07-23T00:07:27;26.20;56.40
44517;DHT22;30223;17.182;-96.766;2022-07-23T00:09:54;26.20;56.20
44517;DHT22;30223;17.182;-96.766;2022-07-23T00:12:21;26.20;56.40
44517;DHT22;30223;17.182;-96.766;2022-07-23T00:14:48;26.20;56.50
44517;DHT22;30223;17.182;-96.766;2022-07-23T00:17:14;26.20;56.60
44517;DHT22;30223;17.182;-96.766;2022-07-23T00:19:41;26.20;56.60
44517;DHT22;30223;17.182;-96.766;2022-07-23T00:22:07;26.20;56.70
44517;DHT22;30223;17.182;-96.766;2022-07-23T00:24:34;26.20;56.60
44517;DHT22;30223;17.182;-96.766;2022-07-23T00:27:01;26.20;56.60
44517;DHT22;30223;17.182;-96.766;2022-07-23T00:29:27;26.20;56.60
44517;DHT22;30223;17.182;-96.766;2022-07-23T00:31:54;26.20;56.60
44517;DHT22;30223;17.182;-96.766;2022-07-23T00:34:20;26.20;56.50
44517;DHT22;30223;17.182;-96.766;2022-07-23T00:36:47;26.10;56.20
44517;DHT22;30223;17.182;-96.766;2022-07-23T00:39:13;26.00;54.10
44517;DHT22;30223;17.182;-96.766;2022-07-23T00:41:40;25.90;53.20
44517;DHT22;30223;17.182;-96.766;2022-07-23T00:44:17;25.80;52.80
44517;DHT22;30223;17.182;-96.766;2022-07-23T00:46:58;25.70;52.30
44517;DHT22;30223;17.182;-96.766;2022-07-23T00:49:28;25.70;51.90
44517;DHT22;30223;17.182;-96.766;2022-07-23T00:51:56;25.60;51.30
44517;DHT22;30223;17.182;-96.766;2022-07-23T00:54:25;25.60;51.20
44517;DHT22;30223;17.182;-96.766;2022-07-23T00:56:51;25.60;50.80
44517;DHT22;30223;17.182;-96.766;2022-07-23T00:59:18;25.70;51.10
44517;DHT22;30223;17.182;-96.766;2022-07-23T01:01:45;25.70;51.00
44517;DHT22;30223;17.182;-96.766;2022-07-23T01:04:15;25.70;50.30
44517;DHT22;30223;17.182;-96.766;2022-07-23T01:06:43;25.80;50.80
44517;DHT22;30223;17.182;-96.766;2022-07-23T01:09:11;26.00;50.40
44517;DHT22;30223;17.182;-96.766;2022-07-23T01:11:38;26.00;50.40
44517;DHT22;30223;17.182;-96.766;2022-07-23T01:14:10;26.10;51.00
44517;DHT22;30223;17.182;-96.766;2022-07-23T01:16:36;26.20;51.30
44517;DHT22;30223;17.182;-96.766;2022-07-23T01:19:03;26.20;51.10
44517;DHT22;30223;17.182;-96.766;2022-07-23T01:21:35;26.20;51.80
44517;DHT22;30223;17.182;-96.766;2022-07-23T01:24:03;26.10;51.00
44517;DHT22;30223;17.182;-96.766;2022-07-23T01:26:30;26.20;50.70
44517;DHT22;30223;17.182;-96.766;2022-07-23T01:28:57;26.10;49.70
44517;DHT22;30223;17.182;-96.766;2022-07-23T01:31:24;26.10;50.30
44517;DHT22;30223;17.182;-96.766;2022-07-23T01:33:50;26.10;50.20
44517;DHT22;30223;17.182;-96.766;2022-07-23T01:36:17;26.20;49.90
44517;DHT22;30223;17.182;-96.766;2022-07-23T01:38:43;26.20;50.00
44517;DHT22;30223;17.182;-96.766;2022-07-23T01:41:10;26.30;50.40
44517;DHT22;30223;17.182;-96.766;2022-07-23T01:43:37;26.40;50.40
44517;DHT22;30223;17.182;-96.766;2022-07-23T01:46:03;26.40;50.40
44517;DHT22;30223;17.182;-96.766;2022-07-23T01:48:30;26.50;51.40
44517;DHT22;30223;17.182;-96.766;2022-07-23T01:50:57;26.50;51.00
44517;DHT22;30223;17.182;-96.766;2022-07-23T01:53:25;26.60;51.30
44517;DHT22;30223;17.182;-96.766;2022-07-23T01:55:52;26.60;50.10
44517;DHT22;30223;17.182;-96.766;2022-07-23T01:58:18;26.70;50.10
44517;DHT22;30223;17.182;-96.766;2022-07-23T02:00:45;26.70;49.70
44517;DHT22;30223;17.182;-96.766;2022-07-23T02:03:11;26.70;49.80
44517;DHT22;30223;17.182;-96.766;2022-07-23T02:05:38;26.70;50.70
44517;DHT22;30223;17.182;-96.766;2022-07-23T02:08:05;26.70;49.90
44517;DHT22;30223;17.182;-96.766;2022-07-23T02:10:31;26.60;49.90
44517;DHT22;30223;17.182;-96.766;2022-07-23T02:12:58;26.60;50.10
44517;DHT22;30223;17.182;-96.766;2022-07-23T02:15:24;26.60;50.00
44517;DHT22;30223;17.182;-96.766;2022-07-23T02:17:51;26.50;49.50
44517;DHT22;30223;17.182;-96.766;2022-07-23T02:20:18;26.30;49.10
44517;DHT22;30223;17.182;-96.766;2022-07-23T02:22:44;26.30;48.80
44517;DHT22;30223;17.182;-96.766;2022-07-23T02:25:11;26.20;48.80
44517;DHT22;30223;17.182;-96.766;2022-07-23T02:27:38;26.20;48.60
44517;DHT22;30223;17.182;-96.766;2022-07-23T02:30:05;26.10;48.60
44517;DHT22;30223;17.182;-96.766;2022-07-23T02:32:32;26.10;48.40
44517;DHT22;30223;17.182;-96.766;2022-07-23T02:34:59;26.00;48.40
44517;DHT22;30223;17.182;-96.766;2022-07-23T02:37:25;25.90;48.10
44517;DHT22;30223;17.182;-96.766;2022-07-23T02:39:52;25.90;48.10
44517;DHT22;30223;17.182;-96.766;2022-07-23T02:42:19;25.80;48.30
44517;DHT22;30223;17.182;-96.766;2022-07-23T02:44:46;25.90;48.20
44517;DHT22;30223;17.182;-96.766;2022-07-23T02:47:13;25.90;47.90
44517;DHT22;30223;17.182;-96.766;2022-07-23T02:49:39;25.90;47.90
44517;DHT22;30223;17.182;-96.766;2022-07-23T02:52:06;25.80;47.70
44517;DHT22;30223;17.182;-96.766;2022-07-23T02:54:32;25.80;47.30
44517;DHT22;30223;17.182;-96.766;2022-07-23T02:56:59;25.80;47.00
44517;DHT22;30223;17.182;-96.766;2022-07-23T02:59:26;25.80;46.90
44517;DHT22;30223;17.182;-96.766;2022-07-23T03:01:52;25.80;46.40
44517;DHT22;30223;17.182;-96.766;2022-07-23T03:04:19;25.70;46.50
44517;DHT22;30223;17.182;-96.766;2022-07-23T03:06:46;25.70;46.40
44517;DHT22;30223;17.182;-96.766;2022-07-23T03:09:12;25.70;47.10
44517;DHT22;30223;17.182;-96.766;2022-07-23T03:11:39;25.70;47.10
44517;DHT22;30223;17.182;-96.766;2022-07-23T03:14:06;25.60;47.50
44517;DHT22;30223;17.182;-96.766;2022-07-23T03:16:33;25.60;47.50
44517;DHT22;30223;17.182;-96.766;2022-07-23T03:19:00;25.70;47.50
44517;DHT22;30223;17.182;-96.766;2022-07-23T03:21:27;25.70;46.90
44517;DHT22;30223;17.182;-96.766;2022-07-23T03:23:53;25.70;46.10
44517;DHT22;30223;17.182;-96.766;2022-07-23T03:26:20;25.70;46.10
44517;DHT22;30223;17.182;-96.766;2022-07-23T03:28:51;25.70;45.70
44517;DHT22;30223;17.182;-96.766;2022-07-23T03:31:18;25.70;45.90
44517;DHT22;30223;17.182;-96.766;2022-07-23T03:33:45;25.70;46.20
44517;DHT22;30223;17.182;-96.766;2022-07-23T03:36:12;25.70;46.00
44517;DHT22;30223;17.182;-96.766;2022-07-23T03:38:38;25.80;45.60
44517;DHT22;30223;17.182;-96.766;2022-07-23T03:41:05;25.90;45.90
44517;DHT22;30223;17.182;-96.766;2022-07-23T03:43:31;26.00;46.60
44517;DHT22;30223;17.182;-96.766;2022-07-23T03:45:58;25.80;44.90
44517;DHT22;30223;17.182;-96.766;2022-07-23T03:48:25;25.70;46.10
44517;DHT22;30223;17.182;-96.766;2022-07-23T03:50:51;25.60;47.10
44517;DHT22;30223;17.182;-96.766;2022-07-23T03:53:18;25.60;47.80
44517;DHT22;30223;17.182;-96.766;2022-07-23T03:55:44;25.50;48.80
44517;DHT22;30223;17.182;-96.766;2022-07-23T03:58:11;25.60;49.20
44517;DHT22;30223;17.182;-96.766;2022-07-23T04:00:37;25.60;49.60
44517;DHT22;30223;17.182;-96.766;2022-07-23T04:03:04;25.60;50.20
44517;DHT22;30223;17.182;-96.766;2022-07-23T04:05:31;25.50;50.50
44517;DHT22;30223;17.182;-96.766;2022-07-23T04:07:57;25.50;50.80
44517;DHT22;30223;17.182;-96.766;2022-07-23T04:10:24;25.50;51.00
44517;DHT22;30223;17.182;-96.766;2022-07-23T04:12:50;25.50;51.20
44517;DHT22;30223;17.182;-96.766;2022-07-23T04:15:17;25.40;51.20
44517;DHT22;30223;17.182;-96.766;2022-07-23T04:17:44;25.40;51.40
44517;DHT22;30223;17.182;-96.766;2022-07-23T04:20:12;25.40;51.20
44517;DHT22;30223;17.182;-96.766;2022-07-23T04:22:39;25.50;51.20
44517;DHT22;30223;17.182;-96.766;2022-07-23T04:25:06;25.40;51.40
44517;DHT22;30223;17.182;-96.766;2022-07-23T04:27:33;25.40;51.80
44517;DHT22;30223;17.182;-96.766;2022-07-23T04:29:59;25.40;51.90
44517;DHT22;30223;17.182;-96.766;2022-07-23T04:32:26;25.40;52.20
44517;DHT22;30223;17.182;-96.766;2022-07-23T04:34:52;25.30;52.50
44517;DHT22;30223;17.182;-96.766;2022-07-23T04:37:19;25.40;52.40
44517;DHT22;30223;17.182;-96.766;2022-07-23T04:39:46;25.30;53.00
44517;DHT22;30223;17.182;-96.766;2022-07-23T04:42:12;25.40;53.30
44517;DHT22;30223;17.182;-96.766;2022-07-23T04:44:39;25.30;53.90
44517;DHT22;30223;17.182;-96.766;2022-07-23T04:47:05;25.30;54.20
44517;DHT22;30223;17.182;-96.766;2022-07-23T04:49:32;25.30;54.20
44517;DHT22;30223;17.182;-96.766;2022-07-23T04:51:59;25.30;54.10
44517;DHT22;30223;17.182;-96.766;2022-07-23T04:54:25;25.30;54.10
44517;DHT22;30223;17.182;-96.766;2022-07-23T04:56:52;25.30;55.10
44517;DHT22;30223;17.182;-96.766;2022-07-23T04:59:19;25.30;54.70
44517;DHT22;30223;17.182;-96.766;2022-07-23T05:01:45;25.30;54.10
44517;DHT22;30223;17.182;-96.766;2022-07-23T05:04:12;25.30;54.70
44517;DHT22;30223;17.182;-96.766;2022-07-23T05:06:38;25.20;54.90
44517;DHT22;30223;17.182;-96.766;2022-07-23T05:09:05;25.30;55.70
44517;DHT22;30223;17.182;-96.766;2022-07-23T05:11:32;25.30;56.10
44517;DHT22;30223;17.182;-96.766;2022-07-23T05:13:58;25.30;55.70
44517;DHT22;30223;17.182;-96.766;2022-07-23T05:16:25;25.20;55.60
44517;DHT22;30223;17.182;-96.766;2022-07-23T05:18:51;25.20;55.20
44517;DHT22;30223;17.182;-96.766;2022-07-23T05:21:18;25.20;55.30
44517;DHT22;30223;17.182;-96.766;2022-07-23T05:23:45;25.10;55.30
44517;DHT22;30223;17.182;-96.766;2022-07-23T05:26:12;25.20;55.30
44517;DHT22;30223;17.182;-96.766;2022-07-23T05:28:38;25.10;55.00
44517;DHT22;30223;17.182;-96.766;2022-07-23T05:31:05;25.10;55.40
44517;DHT22;30223;17.182;-96.766;2022-07-23T05:33:32;25.10;55.20
44517;DHT22;30223;17.182;-96.766;2022-07-23T05:36:02;25.10;55.20
44517;DHT22;30223;17.182;-96.766;2022-07-23T05:38:29;25.10;55.20
44517;DHT22;30223;17.182;-96.766;2022-07-23T05:40:56;25.10;55.40
44517;DHT22;30223;17.182;-96.766;2022-07-23T05:43:23;25.10;55.20
44517;DHT22;30223;17.182;-96.766;2022-07-23T05:45:50;25.00;55.10
44517;DHT22;30223;17.182;-96.766;2022-07-23T05:48:17;25.00;54.30
44517;DHT22;30223;17.182;-96.766;2022-07-23T05:50:43;24.90;53.40
44517;DHT22;30223;17.182;-96.766;2022-07-23T05:53:10;24.90;53.20
44517;DHT22;30223;17.182;-96.766;2022-07-23T05:55:36;24.80;52.60
44517;DHT22;30223;17.182;-96.766;2022-07-23T05:58:03;24.80;51.90
44517;DHT22;30223;17.182;-96.766;2022-07-23T06:00:30;24.70;50.50
44517;DHT22;30223;17.182;-96.766;2022-07-23T06:02:57;24.70;50.70
44517;DHT22;30223;17.182;-96.766;2022-07-23T06:05:24;24.70;50.50
44517;DHT22;30223;17.182;-96.766;2022-07-23T06:07:50;24.60;52.70
44517;DHT22;30223;17.182;-96.766;2022-07-23T06:10:17;24.60;51.60
44517;DHT22;30223;17.182;-96.766;2022-07-23T06:12:44;24.60;51.40
44517;DHT22;30223;17.182;-96.766;2022-07-23T06:15:10;24.60;51.10
44517;DHT22;30223;17.182;-96.766;2022-07-23T06:17:38;24.60;52.10
44517;DHT22;30223;17.182;-96.766;2022-07-23T06:20:09;24.50;52.20
44517;DHT22;30223;17.182;-96.766;2022-07-23T06:22:36;24.40;53.30
44517;DHT22;30223;17.182;-96.766;2022-07-23T06:25:03;24.30;54.40
44517;DHT22;30223;17.182;-96.766;2022-07-23T06:27:30;24.20;54.90
44517;DHT22;30223;17.182;-96.766;2022-07-23T06:29:56;24.20;55.20
44517;DHT22;30223;17.182;-96.766;2022-07-23T06:32:23;24.20;55.30
44517;DHT22;30223;17.182;-96.766;2022-07-23T06:34:50;24.10;55.80
44517;DHT22;30223;17.182;-96.766;2022-07-23T06:37:16;24.00;56.20
44517;DHT22;30223;17.182;-96.766;2022-07-23T06:39:43;23.90;56.50
44517;DHT22;30223;17.182;-96.766;2022-07-23T06:42:10;23.90;56.70
44517;DHT22;30223;17.182;-96.766;2022-07-23T06:44:37;23.80;56.80
44517;DHT22;30223;17.182;-96.766;2022-07-23T06:47:04;23.80;56.80
44517;DHT22;30223;17.182;-96.766;2022-07-23T06:49:31;23.80;56.80
44517;DHT22;30223;17.182;-96.766;2022-07-23T06:51:57;23.80;56.70
44517;DHT22;30223;17.182;-96.766;2022-07-23T06:54:24;23.80;56.60
44517;DHT22;30223;17.182;-96.766;2022-07-23T06:56:51;23.90;56.50
44517;DHT22;30223;17.182;-96.766;2022-07-23T06:59:17;23.90;56.50
44517;DHT22;30223;17.182;-96.766;2022-07-23T07:01:44;23.90;56.20
44517;DHT22;30223;17.182;-96.766;2022-07-23T07:04:10;23.90;56.20
44517;DHT22;30223;17.182;-96.766;2022-07-23T07:06:37;24.00;56.20
44517;DHT22;30223;17.182;-96.766;2022-07-23T07:09:04;24.00;56.00
44517;DHT22;30223;17.182;-96.766;2022-07-23T07:11:30;24.00;56.00
44517;DHT22;30223;17.182;-96.766;2022-07-23T07:13:57;24.00;55.90
44517;DHT22;30223;17.182;-96.766;2022-07-23T07:16:24;23.90;55.80
44517;DHT22;30223;17.182;-96.766;2022-07-23T07:18:51;23.90;56.00
44517;DHT22;30223;17.182;-96.766;2022-07-23T07:21:17;23.90;55.90
44517;DHT22;30223;17.182;-96.766;2022-07-23T07:23:44;23.90;55.80
44517;DHT22;30223;17.182;-96.766;2022-07-23T07:26:10;24.00;55.90
44517;DHT22;30223;17.182;-96.766;2022-07-23T07:28:37;24.00;56.00
44517;DHT22;30223;17.182;-96.766;2022-07-23T07:31:04;24.00;56.20
44517;DHT22;30223;17.182;-96.766;2022-07-23T07:33:31;24.00;56.80
44517;DHT22;30223;17.182;-96.766;2022-07-23T07:35:57;24.00;56.10
44517;DHT22;30223;17.182;-96.766;2022-07-23T07:38:24;24.00;56.10
44517;DHT22;30223;17.182;-96.766;2022-07-23T07:40:51;24.00;56.20
44517;DHT22;30223;17.182;-96.766;2022-07-23T07:43:17;24.00;56.10
44517;DHT22;30223;17.182;-96.766;2022-07-23T07:45:44;24.00;56.10
44517;DHT22;30223;17.182;-96.766;2022-07-23T07:48:11;24.00;56.10
44517;DHT22;30223;17.182;-96.766;2022-07-23T07:50:37;24.00;56.00
44517;DHT22;30223;17.182;-96.766;2022-07-23T07:53:04;24.00;56.00
44517;DHT22;30223;17.182;-96.766;2022-07-23T07:55:30;24.00;56.10
44517;DHT22;30223;17.182;-96.766;2022-07-23T07:57:57;24.00;56.10
44517;DHT22;30223;17.182;-96.766;2022-07-23T08:00:24;24.00;56.00
44517;DHT22;30223;17.182;-96.766;2022-07-23T08:02:52;24.00;56.30
44517;DHT22;30223;17.182;-96.766;2022-07-23T08:05:21;24.00;56.30
44517;DHT22;30223;17.182;-96.766;2022-07-23T08:07:48;24.00;56.20
44517;DHT22;30223;17.182;-96.766;2022-07-23T08:10:15;24.00;56.10
44517;DHT22;30223;17.182;-96.766;2022-07-23T08:12:47;23.90;56.20
44517;DHT22;30223;17.182;-96.766;2022-07-23T08:15:15;23.90;56.20
44517;DHT22;30223;17.182;-96.766;2022-07-23T08:17:44;23.90;56.20
44517;DHT22;30223;17.182;-96.766;2022-07-23T08:20:12;24.00;56.10
44517;DHT22;30223;17.182;-96.766;2022-07-23T08:25:13;23.90;56.10
44517;DHT22;30223;17.182;-96.766;2022-07-23T08:27:40;23.90;56.10
44517;DHT22;30223;17.182;-96.766;2022-07-23T08:30:07;23.80;56.00
44517;DHT22;30223;17.182;-96.766;2022-07-23T08:32:47;23.80;56.10
44517;DHT22;30223;17.182;-96.766;2022-07-23T08:35:13;23.80;56.20
44517;DHT22;30223;17.182;-96.766;2022-07-23T08:37:40;23.80;56.70
44517;DHT22;30223;17.182;-96.766;2022-07-23T08:40:07;23.80;56.20
44517;DHT22;30223;17.182;-96.766;2022-07-23T08:42:34;23.80;56.20
44517;DHT22;30223;17.182;-96.766;2022-07-23T08:45:02;23.80;56.30
44517;DHT22;30223;17.182;-96.766;2022-07-23T08:47:30;23.80;56.20
44517;DHT22;30223;17.182;-96.766;2022-07-23T08:49:58;23.80;56.10
44517;DHT22;30223;17.182;-96.766;2022-07-23T08:52:25;23.70;56.10
44517;DHT22;30223;17.182;-96.766;2022-07-23T08:54:52;23.70;56.10
44517;DHT22;30223;17.182;-96.766;2022-07-23T08:57:20;23.70;56.10
44517;DHT22;30223;17.182;-96.766;2022-07-23T08:59:47;23.70;56.80
44517;DHT22;30223;17.182;-96.766;2022-07-23T09:02:13;23.70;56.30
44517;DHT22;30223;17.182;-96.766;2022-07-23T09:04:40;23.70;56.30
44517;DHT22;30223;17.182;-96.766;2022-07-23T09:07:06;23.70;56.20
44517;DHT22;30223;17.182;-96.766;2022-07-23T09:09:33;23.60;56.20
44517;DHT22;30223;17.182;-96.766;2022-07-23T09:12:08;23.60;56.40
44517;DHT22;30223;17.182;-96.766;2022-07-23T09:14:43;23.60;56.30
44517;DHT22;30223;17.182;-96.766;2022-07-23T09:17:14;23.60;56.30
44517;DHT22;30223;17.182;-96.766;2022-07-23T09:19:42;23.60;56.80
44517;DHT22;30223;17.182;-96.766;2022-07-23T09:22:23;23.60;56.20
44517;DHT22;30223;17.182;-96.766;2022-07-23T09:25:09;23.60;56.20
44517;DHT22;30223;17.182;-96.766;2022-07-23T09:30:16;23.50;56.30
44517;DHT22;30223;17.182;-96.766;2022-07-23T09:32:43;23.50;56.30
44517;DHT22;30223;17.182;-96.766;2022-07-23T09:35:10;23.50;56.50
44517;DHT22;30223;17.182;-96.766;2022-07-23T09:37:37;23.50;56.30
44517;DHT22;30223;17.182;-96.766;2022-07-23T09:40:09;23.50;56.20
44517;DHT22;30223;17.182;-96.766;2022-07-23T09:42:39;23.40;56.20
44517;DHT22;30223;17.182;-96.766;2022-07-23T09:45:11;23.50;56.20
44517;DHT22;30223;17.182;-96.766;2022-07-23T09:47:38;23.40;56.20
44517;DHT22;30223;17.182;-96.766;2022-07-23T09:50:09;23.40;56.20
44517;DHT22;30223;17.182;-96.766;2022-07-23T09:55:08;23.40;56.20
44517;DHT22;30223;17.182;-96.766;2022-07-23T09:57:35;23.40;56.00
44517;DHT22;30223;17.182;-96.766;2022-07-23T10:00:05;23.40;56.10
44517;DHT22;30223;17.182;-96.766;2022-07-23T10:02:33;23.30;56.10
44517;DHT22;30223;17.182;-96.766;2022-07-23T10:05:01;23.30;56.00
44517;DHT22;30223;17.182;-96.766;2022-07-23T10:07:34;23.30;55.90
44517;DHT22;30223;17.182;-96.766;2022-07-23T10:10:04;23.30;56.00
44517;DHT22;30223;17.182;-96.766;2022-07-23T10:12:31;23.30;56.20
44517;DHT22;30223;17.182;-96.766;2022-07-23T10:15:26;23.30;56.20
44517;DHT22;30223;17.182;-96.766;2022-07-23T10:17:53;23.30;56.20
44517;DHT22;30223;17.182;-96.766;2022-07-23T10:20:20;23.20;56.20
44517;DHT22;30223;17.182;-96.766;2022-07-23T10:23:19;23.20;56.10
44517;DHT22;30223;17.182;-96.766;2022-07-23T10:25:57;23.20;56.10
44517;DHT22;30223;17.182;-96.766;2022-07-23T10:28:44;23.20;56.00
44517;DHT22;30223;17.182;-96.766;2022-07-23T10:31:40;23.20;56.10
44517;DHT22;30223;17.182;-96.766;2022-07-23T10:37:16;23.10;56.00
44517;DHT22;30223;17.182;-96.766;2022-07-23T10:39:47;23.10;55.90
44517;DHT22;30223;17.182;-96.766;2022-07-23T10:42:15;23.10;55.90
44517;DHT22;30223;17.182;-96.766;2022-07-23T10:44:47;23.10;56.00
44517;DHT22;30223;17.182;-96.766;2022-07-23T10:47:28;23.00;55.90
44517;DHT22;30223;17.182;-96.766;2022-07-23T10:50:29;23.00;55.90
44517;DHT22;30223;17.182;-96.766;2022-07-23T10:53:08;23.00;55.90
44517;DHT22;30223;17.182;-96.766;2022-07-23T10:58:03;23.00;56.10
44517;DHT22;30223;17.182;-96.766;2022-07-23T11:00:32;23.00;56.10
44517;DHT22;30223;17.182;-96.766;2022-07-23T11:03:01;23.00;56.20
44517;DHT22;30223;17.182;-96.766;2022-07-23T11:05:48;23.00;56.30
44517;DHT22;30223;17.182;-96.766;2022-07-23T11:08:21;22.90;56.20
44517;DHT22;30223;17.182;-96.766;2022-07-23T11:13:32;22.90;56.10
44517;DHT22;30223;17.182;-96.766;2022-07-23T11:24:07;22.90;56.20
44517;DHT22;30223;17.182;-96.766;2022-07-23T11:26:45;22.90;56.10
44517;DHT22;30223;17.182;-96.766;2022-07-23T11:34:48;22.90;56.10
44517;DHT22;30223;17.182;-96.766;2022-07-23T11:40:03;22.80;56.10
44517;DHT22;30223;17.182;-96.766;2022-07-23T11:42:29;22.80;56.20
44517;DHT22;30223;17.182;-96.766;2022-07-23T11:44:56;22.80;56.10
44517;DHT22;30223;17.182;-96.766;2022-07-23T11:47:25;22.80;56.10
44517;DHT22;30223;17.182;-96.766;2022-07-23T11:49:57;22.80;56.20
44517;DHT22;30223;17.182;-96.766;2022-07-23T11:52:25;22.80;56.30
44517;DHT22;30223;17.182;-96.766;2022-07-23T11:54:54;22.70;56.00
44517;DHT22;30223;17.182;-96.766;2022-07-23T11:57:23;22.70;56.10
44517;DHT22;30223;17.182;-96.766;2022-07-23T11:59:55;22.70;56.30
44517;DHT22;30223;17.182;-96.766;2022-07-23T12:02:22;22.60;56.30
44517;DHT22;30223;17.182;-96.766;2022-07-23T12:04:51;22.60;56.20
44517;DHT22;30223;17.182;-96.766;2022-07-23T12:07:39;22.60;56.10
44517;DHT22;30223;17.182;-96.766;2022-07-23T12:10:21;22.50;56.10
44517;DHT22;30223;17.182;-96.766;2022-07-23T12:13:02;22.50;56.20
44517;DHT22;30223;17.182;-96.766;2022-07-23T12:15:35;22.50;56.20
44517;DHT22;30223;17.182;-96.766;2022-07-23T12:18:05;22.50;56.20
44517;DHT22;30223;17.182;-96.766;2022-07-23T12:20:34;22.40;56.40
44517;DHT22;30223;17.182;-96.766;2022-07-23T12:23:04;22.40;56.50
44517;DHT22;30223;17.182;-96.766;2022-07-23T12:25:36;22.40;56.60
44517;DHT22;30223;17.182;-96.766;2022-07-23T12:28:06;22.40;56.60
44517;DHT22;30223;17.182;-96.766;2022-07-23T12:30:39;22.30;56.70
44517;DHT22;30223;17.182;-96.766;2022-07-23T12:33:06;22.30;56.80
44517;DHT22;30223;17.182;-96.766;2022-07-23T12:35:40;22.30;57.10
44517;DHT22;30223;17.182;-96.766;2022-07-23T12:38:10;22.30;57.20
44517;DHT22;30223;17.182;-96.766;2022-07-23T12:40:43;22.20;56.90
44517;DHT22;30223;17.182;-96.766;2022-07-23T12:43:33;22.20;57.10
44517;DHT22;30223;17.182;-96.766;2022-07-23T12:46:16;22.20;57.30
44517;DHT22;30223;17.182;-96.766;2022-07-23T12:51:23;22.20;57.50
44517;DHT22;30223;17.182;-96.766;2022-07-23T12:53:52;22.10;57.60
44517;DHT22;30223;17.182;-96.766;2022-07-23T12:56:35;22.20;57.70
44517;DHT22;30223;17.182;-96.766;2022-07-23T12:59:10;22.10;57.60
44517;DHT22;30223;17.182;-96.766;2022-07-23T13:01:42;22.10;58.00
44517;DHT22;30223;17.182;-96.766;2022-07-23T13:04:22;22.10;58.00
44517;DHT22;30223;17.182;-96.766;2022-07-23T13:06:52;22.10;58.10
44517;DHT22;30223;17.182;-96.766;2022-07-23T13:09:21;22.10;58.50
44517;DHT22;30223;17.182;-96.766;2022-07-23T13:11:49;22.10;58.50
44517;DHT22;30223;17.182;-96.766;2022-07-23T13:14:17;22.10;58.70
44517;DHT22;30223;17.182;-96.766;2022-07-23T13:16:46;22.10;58.90
44517;DHT22;30223;17.182;-96.766;2022-07-23T13:19:13;22.10;59.00
44517;DHT22;30223;17.182;-96.766;2022-07-23T13:21:40;22.10;59.10
44517;DHT22;30223;17.182;-96.766;2022-07-23T13:24:11;22.10;58.90
44517;DHT22;30223;17.182;-96.766;2022-07-23T13:26:38;22.10;59.20
44517;DHT22;30223;17.182;-96.766;2022-07-23T13:29:05;22.10;60.10
44517;DHT22;30223;17.182;-96.766;2022-07-23T13:31:33;22.10;59.40
44517;DHT22;30223;17.182;-96.766;2022-07-23T13:33:59;22.10;59.70
44517;DHT22;30223;17.182;-96.766;2022-07-23T13:36:26;22.10;59.70
44517;DHT22;30223;17.182;-96.766;2022-07-23T13:38:53;22.10;60.00
44517;DHT22;30223;17.182;-96.766;2022-07-23T13:41:19;22.10;60.20
44517;DHT22;30223;17.182;-96.766;2022-07-23T13:43:46;22.10;60.10
44517;DHT22;30223;17.182;-96.766;2022-07-23T13:46:13;22.10;60.20
44517;DHT22;30223;17.182;-96.766;2022-07-23T13:48:39;22.20;60.20
44517;DHT22;30223;17.182;-96.766;2022-07-23T13:51:07;22.10;60.70
44517;DHT22;30223;17.182;-96.766;2022-07-23T13:53:34;22.10;61.00
44517;DHT22;30223;17.182;-96.766;2022-07-23T13:56:00;22.10;60.60
44517;DHT22;30223;17.182;-96.766;2022-07-23T13:58:27;22.10;60.50
44517;DHT22;30223;17.182;-96.766;2022-07-23T14:00:54;22.10;60.80
44517;DHT22;30223;17.182;-96.766;2022-07-23T14:03:22;22.10;60.90
44517;DHT22;30223;17.182;-96.766;2022-07-23T14:05:50;22.10;61.00
44517;DHT22;30223;17.182;-96.766;2022-07-23T14:08:16;22.20;61.00
44517;DHT22;30223;17.182;-96.766;2022-07-23T14:10:43;22.10;60.70
44517;DHT22;30223;17.182;-96.766;2022-07-23T14:13:10;22.10;60.60
44517;DHT22;30223;17.182;-96.766;2022-07-23T14:15:36;22.10;60.50
44517;DHT22;30223;17.182;-96.766;2022-07-23T14:18:06;22.10;60.50
44517;DHT22;30223;17.182;-96.766;2022-07-23T14:20:33;22.10;60.70
44517;DHT22;30223;17.182;-96.766;2022-07-23T14:23:00;22.20;60.30
44517;DHT22;30223;17.182;-96.766;2022-07-23T14:25:27;22.20;60.10
44517;DHT22;30223;17.182;-96.766;2022-07-23T14:27:54;22.20;60.20
44517;DHT22;30223;17.182;-96.766;2022-07-23T14:30:20;22.20;60.20
44517;DHT22;30223;17.182;-96.766;2022-07-23T14:32:49;22.20;60.10
44517;DHT22;30223;17.182;-96.766;2022-07-23T14:35:16;22.20;60.10
44517;DHT22;30223;17.182;-96.766;2022-07-23T14:37:42;22.20;60.00
44517;DHT22;30223;17.182;-96.766;2022-07-23T14:40:09;22.20;60.00
44517;DHT22;30223;17.182;-96.766;2022-07-23T14:42:36;22.20;60.10
44517;DHT22;30223;17.182;-96.766;2022-07-23T14:45:03;22.20;60.10
44517;DHT22;30223;17.182;-96.766;2022-07-23T14:47:31;22.20;60.20
44517;DHT22;30223;17.182;-96.766;2022-07-23T14:49:57;22.20;60.00
44517;DHT22;30223;17.182;-96.766;2022-07-23T14:52:24;22.30;60.10
44517;DHT22;30223;17.182;-96.766;2022-07-23T14:54:51;22.30;60.10
44517;DHT22;30223;17.182;-96.766;2022-07-23T14:57:17;22.20;60.00
44517;DHT22;30223;17.182;-96.766;2022-07-23T14:59:44;22.30;60.00
44517;DHT22;30223;17.182;-96.766;2022-07-23T15:02:10;22.30;59.80
44517;DHT22;30223;17.182;-96.766;2022-07-23T15:04:37;22.30;59.80
44517;DHT22;30223;17.182;-96.766;2022-07-23T15:07:04;22.30;59.80
44517;DHT22;30223;17.182;-96.766;2022-07-23T15:09:31;22.30;59.80
44517;DHT22;30223;17.182;-96.766;2022-07-23T15:11:57;22.40;59.90
44517;DHT22;30223;17.182;-96.766;2022-07-23T15:14:24;22.30;59.90
44517;DHT22;30223;17.182;-96.766;2022-07-23T15:16:51;22.40;60.20
44517;DHT22;30223;17.182;-96.766;2022-07-23T15:19:17;22.30;60.40
44517;DHT22;30223;17.182;-96.766;2022-07-23T15:21:44;22.30;60.00
44517;DHT22;30223;17.182;-96.766;2022-07-23T15:24:11;22.30;59.90
44517;DHT22;30223;17.182;-96.766;2022-07-23T15:26:38;22.30;59.90
44517;DHT22;30223;17.182;-96.766;2022-07-23T15:29:04;22.30;59.70
44517;DHT22;30223;17.182;-96.766;2022-07-23T15:31:32;22.40;59.70
44517;DHT22;30223;17.182;-96.766;2022-07-23T15:33:59;22.40;59.30
44517;DHT22;30223;17.182;-96.766;2022-07-23T15:36:26;22.40;59.30
44517;DHT22;30223;17.182;-96.766;2022-07-23T15:38:53;22.40;59.30
44517;DHT22;30223;17.182;-96.766;2022-07-23T15:41:20;22.40;59.30
44517;DHT22;30223;17.182;-96.766;2022-07-23T15:43:47;22.40;59.30